Observations for PESCARA, Italy (LIBP)

LIBP 200650Z 27005KT 9999 BKN040 10/05 Q1026
LIBP 200550Z AUTO 22004KT 200V270 9999 SCT029/// OVC067/// 08/06 Q1025  
LIBP 200550Z AUTO 22004KT 200V270 9999 SCT029 OVC067 08/06 Q1025
LIBP 200450Z AUTO 20005KT 9999 SCT030/// BKN033/// OVC064/// 09/06 Q1025
LIBP 200450Z AUTO 20005KT 9999 SCT030 BKN033 OVC064 09/06 Q1025
LIBP 200350Z AUTO 26004KT 220V290 9999 OVC029/// 09/05 Q1024
LIBP 200350Z AUTO 26004KT 220V290 9999 OVC029 09/05 Q1024
LIBP 200250Z AUTO 22003KT 9999 OVC027/// 08/05 Q1024
LIBP 200250Z AUTO 22003KT 9999 OVC027 08/05 Q1024
LIBP 200150Z AUTO 22005KT 9999 OVC027/// 08/06 Q1024
LIBP 200150Z AUTO 22005KT 9999 OVC027 08/06 Q1024
LIBP 200050Z AUTO 24005KT 210V280 9999 +DZ OVC028/// 09/05 Q1024
LIBP 200103Z AUTO 23004KT 170V280 9999 -RA OVC028/// 08/05 Q1024
LIBP 200050Z AUTO 24005KT 210V280 9999 +DZ OVC028 09/05 Q1024
LIBP 200035Z AUTO 25006KT 9999 DZ OVC028/// 09/05 Q1024
LIBP 192350Z AUTO 26004KT 210V320 9999 OVC032/// 10/04 Q1024
LIBP 192350Z AUTO 26004KT 210V320 9999 OVC032 10/04 Q1024
LIBP 192250Z AUTO VRB02KT 9999 OVC038/// 09/04 Q1024
LIBP 192250Z AUTO VRB02KT 9999 OVC038 09/04 Q1024
LIBP 192150Z 28006KT 240V320 9999 FEW035 SCT045 10/04 Q1024 
LIBP 192050Z 32004KT 270V020 9999 FEW035 SCT070 09/04 Q1023 
LIBP 191950Z 30003KT 230V340 9999 BKN050 10/05 Q1023
LIBP 191850Z 31004KT 250V340 9999 SCT030 BKN060 10/05 Q1022 
LIBP 191750Z 30004KT 260V340 9999 BKN025 10/05 Q1022
LIBP 191650Z 33006KT 290V350 9999 SCT025 BKN050 11/05 Q1021 
LIBP 191550Z 34009KT 9999 SCT025 BKN050 11/06 Q1020 
LIBP 191455Z 34009KT 300V010 9999 SCT045 BKN070 11/06 Q1020
LIBP 191450Z 34009KT 300V010 9999 SCT045 BKN070 11/06 Q1020 
LIBP 191350Z AUTO 01011KT 9999 SCT045/// BKN072/// 11/06 Q1019  
LIBP 191250Z AUTO 36012KT 330V030 9999 BKN041/// BKN079/// 12/06 Q1019  
LIBP 191250Z AUTO 36012KT 330V030 9999 BKN041 BKN079 12/06 Q1019
LIBP 191150Z AUTO 36013KT 320V030 9999 FEW041/// BKN083/// 12/06 Q1019  
LIBP 191150Z AUTO 36013KT 320V030 9999 FEW041 BKN083 12/06 Q1019
LIBP 191050Z AUTO 36011KT 320V030 9999 FEW035/// 12/06 Q1019
LIBP 191050Z AUTO 36011KT 320V030 9999 FEW035 12/06 Q1019
LIBP 190950Z AUTO 36011KT 9999 FEW032/// 13/07 Q1018
LIBP 190950Z AUTO 36011KT 9999 FEW032 13/07 Q1018
LIBP 190850Z AUTO 02008KT 350V050 9999 BKN028/// 12/06 Q1018
LIBP 190850Z AUTO 02008KT 350V050 9999 BKN028 12/06 Q1018
LIBP 190750Z AUTO 31004KT 280V350 9999 BKN025/// 11/06 Q1018
LIBP 190750Z AUTO 31004KT 280V350 9999 BKN025 11/06 Q1018
LIBP 190650Z AUTO 19002KT 9999 SCT025/// BKN051/// 10/06 Q1018  
LIBP 190650Z AUTO 19002KT 9999 SCT025 BKN051 10/06 Q1018